Time;durP1;ratioP1;P1;durP2;ratioP2;P2;SDS_P1;SDS_P2;PMS_P1;PMS_P2;Temp;Humidity;BMP_temperature;BMP_pressure;BME280_temperature;BME280_humidity;BME280_pressure;Samples;Min_cycle;Max_cycle;Signal;HPM_P1;HPM_P2
2023/10/29 00:01:56;;;;;;;4.65;0.20;;;;;;;25.87;50.14;96319.91;7396482;19;20007;-55
2023/10/29 00:04:22;;;;;;;18.25;1.63;;;;;;;26.61;49.46;96319.28;7397665;19;20011;-55
2023/10/29 00:06:48;;;;;;;1.48;0.50;;;;;;;26.88;49.20;96327.16;7399166;19;20366;-55
2023/10/29 00:09:14;;;;;;;2.05;1.38;;;;;;;26.52;49.72;96325.41;7396992;19;20531;-55
2023/10/29 00:11:40;;;;;;;0.13;0.13;;;;;;;26.13;50.58;96330.03;7395359;19;20006;-55
2023/10/29 00:14:06;;;;;;;0.10;0.10;;;;;;;26.19;50.83;96320.91;7397515;19;20010;-55
2023/10/29 00:16:33;;;;;;;0.20;0.10;;;;;;;26.53;50.63;96330.44;7401999;19;20010;-55
2023/10/29 00:18:59;;;;;;;0.22;0.22;;;;;;;26.33;51.17;96319.19;7396791;19;20019;-55
2023/10/29 00:21:25;;;;;;;0.30;0.30;;;;;;;26.67;50.43;96319.44;7393674;19;20401;-55
2023/10/29 00:23:51;;;;;;;0.20;0.20;;;;;;;26.03;51.53;96320.41;7396504;19;20035;-55
2023/10/29 00:26:17;;;;;;;0.00;0.00;;;;;;;25.89;52.31;96328.53;7400965;19;20031;-55
2023/10/29 00:28:48;;;;;;;0.57;0.45;;;;;;;25.79;52.96;96325.38;7395150;19;20013;-55
2023/10/29 00:31:14;;;;;;;0.28;0.28;;;;;;;26.11;52.67;96321.41;7396814;19;20070;-55
2023/10/29 00:33:41;;;;;;;0.88;0.35;;;;;;;25.70;53.30;96323.66;7394674;19;20007;-55
2023/10/29 00:36:08;;;;;;;1.67;0.60;;;;;;;25.87;52.96;96317.06;7400082;19;20022;-55
2023/10/29 00:38:34;;;;;;;0.10;0.05;;;;;;;25.75;53.45;96320.25;7393606;19;20046;-55
2023/10/29 00:41:00;;;;;;;0.35;0.22;;;;;;;25.93;52.79;96328.66;7394078;19;20018;-55
2023/10/29 00:43:26;;;;;;;0.55;0.47;;;;;;;26.54;52.11;96329.06;7393762;19;20031;-55
2023/10/29 00:45:57;;;;;;;1.75;0.85;;;;;;;27.25;50.60;96325.97;7398437;19;20019;-55
2023/10/29 00:48:24;;;;;;;0.10;0.00;;;;;;;25.88;52.75;96327.09;7394869;19;20035;-55
2023/10/29 00:50:50;;;;;;;0.10;0.10;;;;;;;26.40;52.85;96334.34;7393055;19;20014;-55
2023/10/29 00:53:16;;;;;;;0.10;0.10;;;;;;;27.17;50.93;96320.06;7397492;19;20321;-55
2023/10/29 00:55:43;;;;;;;0.10;0.00;;;;;;;27.34;50.42;96321.91;7398285;19;20489;-55
2023/10/29 00:58:10;;;;;;;0.10;0.00;;;;;;;28.28;48.44;96320.59;7395846;19;20021;-55
2023/10/29 01:00:37;;;;;;;0.10;0.10;;;;;;;28.19;48.71;96324.69;7393103;19;20062;-55
2023/10/29 01:03:03;;;;;;;0.40;0.40;;;;;;;28.45;47.26;96322.38;7396074;19;20078;-55
2023/10/29 01:05:29;;;;;;;0.00;0.00;;;;;;;28.45;46.98;96315.91;7397477;19;20007;-58
2023/10/29 01:07:56;;;;;;;0.30;0.20;;;;;;;28.78;46.56;96315.16;7399765;19;20022;-55
2023/10/29 01:10:22;;;;;;;0.20;0.15;;;;;;;28.77;46.60;96321.56;7393732;19;20035;-55
2023/10/29 01:12:48;;;;;;;0.10;0.00;;;;;;;28.80;46.17;96320.94;7395164;19;20103;-55
2023/10/29 01:15:14;;;;;;;3.38;1.58;;;;;;;28.63;46.14;96329.91;7396611;19;20096;-55
2023/10/29 01:17:42;;;;;;;0.10;0.10;;;;;;;29.24;45.53;96323.88;7392992;19;20773;-55
2023/10/29 01:20:09;;;;;;;0.10;0.00;;;;;;;28.94;45.60;96326.19;7393113;19;20014;-55
2023/10/29 01:22:35;;;;;;;0.22;0.15;;;;;;;28.53;46.17;96333.97;7393056;19;20011;-55
2023/10/29 01:25:05;;;;;;;0.35;0.30;;;;;;;28.37;46.11;96336.50;7395069;19;20086;-55
2023/10/29 01:27:31;;;;;;;0.45;0.35;;;;;;;28.45;45.90;96338.81;7394935;19;20093;-55
2023/10/29 01:29:57;;;;;;;0.20;0.10;;;;;;;27.82;46.92;96342.41;7394505;19;20014;-55
2023/10/29 01:32:23;;;;;;;0.20;0.20;;;;;;;27.64;46.65;96342.69;7393001;19;20091;-55
2023/10/29 01:34:50;;;;;;;0.55;0.35;;;;;;;28.10;46.11;96337.34;7393793;19;20011;-55
2023/10/29 01:37:16;;;;;;;0.10;0.00;;;;;;;27.96;46.29;96342.72;7397071;19;20010;-55
2023/10/29 01:39:43;;;;;;;0.40;0.40;;;;;;;27.26;47.95;96352.44;7393603;19;20083;-55
2023/10/29 01:42:09;;;;;;;0.20;0.20;;;;;;;27.56;47.31;96353.22;7392800;19;20014;-55
2023/10/29 01:44:35;;;;;;;0.75;0.60;;;;;;;27.69;46.48;96344.25;7393812;19;20027;-55
2023/10/29 01:47:01;;;;;;;0.10;0.10;;;;;;;27.86;46.34;96344.63;7392546;19;20018;-55
2023/10/29 01:49:27;;;;;;;0.40;0.40;;;;;;;27.98;45.94;96339.22;7393986;19;20035;-55
2023/10/29 01:51:54;;;;;;;0.10;0.10;;;;;;;27.81;46.11;96349.50;7393415;19;20098;-55
2023/10/29 01:54:22;;;;;;;0.20;0.10;;;;;;;27.89;45.74;96344.00;7397086;19;20049;-55
2023/10/29 01:56:48;;;;;;;0.20;0.20;;;;;;;28.69;44.49;96347.94;7392552;19;20027;-55
2023/10/29 01:59:15;;;;;;;0.15;0.10;;;;;;;28.90;44.57;96351.91;7392597;19;20480;-55
2023/10/29 02:01:42;;;;;;;0.30;0.13;;;;;;;28.88;44.43;96361.19;7390295;19;20011;-55
2023/10/29 02:04:09;;;;;;;0.10;0.10;;;;;;;30.05;42.82;96356.78;7394207;19;20013;-55
2023/10/29 02:06:39;;;;;;;1.65;0.88;;;;;;;30.29;42.33;96352.09;7395357;19;20021;-56
2023/10/29 02:09:08;;;;;;;0.10;0.00;;;;;;;29.14;43.41;96353.09;7393173;19;20067;-55
2023/10/29 02:11:36;;;;;;;0.73;0.73;;;;;;;28.25;44.05;96356.28;7390771;19;20014;-55
2023/10/29 02:14:02;;;;;;;0.30;0.28;;;;;;;27.57;44.75;96357.53;7393085;19;20019;-55
2023/10/29 02:16:28;;;;;;;7.85;0.98;;;;;;;28.29;44.37;96362.09;7395762;19;20320;-55
2023/10/29 02:18:55;;;;;;;0.47;0.30;;;;;;;29.09;42.96;96362.28;7393108;19;20015;-55
2023/10/29 02:21:23;;;;;;;0.20;0.20;;;;;;;28.20;44.02;96371.16;7391635;19;20026;-55
2023/10/29 02:23:50;;;;;;;0.10;0.10;;;;;;;27.01;45.53;96377.50;7390920;19;20474;-55
2023/10/29 02:26:16;;;;;;;0.10;0.10;;;;;;;24.89;48.58;96389.28;7395395;19;20013;-55
2023/10/29 02:28:43;;;;;;;0.10;0.10;;;;;;;24.52;49.93;96384.38;7392597;19;20021;-55
2023/10/29 02:31:19;;;;;;;0.10;0.00;;;;;;;24.48;49.99;96383.50;7391887;19;20022;-55
2023/10/29 02:33:46;;;;;;;0.10;0.10;;;;;;;25.57;48.57;96390.94;7391075;19;20007;-55
2023/10/29 02:36:13;;;;;;;0.10;0.00;;;;;;;25.17;49.06;96390.28;7397346;19;20014;-55
2023/10/29 02:38:43;;;;;;;0.10;0.10;;;;;;;25.41;48.91;96385.41;7392642;19;20502;-55
2023/10/29 02:41:09;;;;;;;0.10;0.10;;;;;;;25.67;48.52;96393.38;7389969;19;20376;-55
2023/10/29 02:43:38;;;;;;;0.90;0.65;;;;;;;24.78;49.79;96401.72;7390475;19;20022;-55
2023/10/29 02:46:04;;;;;;;0.15;0.15;;;;;;;24.95;49.86;96403.03;7394093;19;20035;-55
2023/10/29 02:48:30;;;;;;;0.10;0.03;;;;;;;24.16;50.79;96396.50;7392159;19;20400;-55
2023/10/29 02:50:57;;;;;;;0.10;0.10;;;;;;;25.61;48.67;96410.28;7392594;19;20043;-55
2023/10/29 02:53:23;;;;;;;0.10;0.10;;;;;;;24.90;49.57;96407.84;7393843;19;20011;-55
2023/10/29 02:55:50;;;;;;;0.40;0.30;;;;;;;25.65;47.98;96402.59;7393024;19;20010;-54
2023/10/29 02:58:16;;;;;;;0.20;0.20;;;;;;;25.85;47.89;96414.66;7392212;19;20026;-54
2023/10/29 03:00:42;;;;;;;0.30;0.30;;;;;;;26.44;46.25;96405.09;7388692;19;20018;-54
2023/10/29 03:03:08;;;;;;;0.43;0.43;;;;;;;25.47;47.72;96408.44;7390715;19;20030;-54
2023/10/29 03:05:34;;;;;;;0.10;0.10;;;;;;;25.41;48.10;96416.75;7393671;19;20498;-54
2023/10/29 03:08:01;;;;;;;0.20;0.20;;;;;;;28.01;43.58;96415.81;7393812;19;20374;-54
2023/10/29 03:10:31;;;;;;;0.68;0.30;;;;;;;29.38;42.02;96410.16;7389579;19;20015;-54
2023/10/29 03:12:57;;;;;;;0.90;0.30;;;;;;;30.85;39.60;96415.34;7393684;19;20463;-54
2023/10/29 03:15:23;;;;;;;0.32;0.28;;;;;;;31.08;38.50;96414.19;7400898;19;20010;-54
2023/10/29 03:17:49;;;;;;;0.20;0.20;;;;;;;27.06;43.28;96429.75;7400136;19;20007;-54
2023/10/29 03:20:16;;;;;;;0.10;0.10;;;;;;;25.73;45.36;96419.25;7396873;19;20170;-54
2023/10/29 03:22:42;;;;;;;0.20;0.20;;;;;;;25.01;46.69;96429.59;7398263;19;20476;-54
2023/10/29 03:25:09;;;;;;;0.10;0.10;;;;;;;25.47;46.02;96434.06;7399719;19;20006;-54
2023/10/29 03:27:35;;;;;;;0.10;0.10;;;;;;;25.58;46.17;96432.28;7398362;19;20015;-54
2023/10/29 03:30:01;;;;;;;1.75;0.40;;;;;;;24.29;47.70;96435.41;7398335;19;20021;-54
2023/10/29 03:32:27;;;;;;;0.25;0.25;;;;;;;23.48;49.11;96439.91;7396282;19;20019;-55
2023/10/29 03:34:53;;;;;;;0.20;0.20;;;;;;;25.72;46.35;96432.03;7399423;19;20010;-54
2023/10/29 03:37:19;;;;;;;0.52;0.28;;;;;;;28.46;42.47;96438.31;7401230;19;20019;-54
2023/10/29 03:39:46;;;;;;;0.55;0.10;;;;;;;25.72;45.45;96432.78;7397377;19;20632;-54
2023/10/29 03:42:12;;;;;;;2.10;0.88;;;;;;;28.76;41.71;96434.69;7398864;19;20070;-55
2023/10/29 03:44:38;;;;;;;0.10;0.00;;;;;;;29.60;40.78;96430.63;7398540;19;20018;-54
2023/10/29 03:47:04;;;;;;;0.10;0.10;;;;;;;27.31;42.35;96436.88;7397741;19;20017;-54
2023/10/29 03:49:30;;;;;;;0.32;0.30;;;;;;;28.90;41.10;96432.13;7397763;19;20018;-54
2023/10/29 03:51:56;;;;;;;0.20;0.20;;;;;;;28.27;41.20;96441.44;7397850;19;20104;-54
2023/10/29 03:54:22;;;;;;;1.48;0.52;;;;;;;27.81;41.91;96441.03;7398962;19;20055;-55
2023/10/29 03:56:48;;;;;;;0.10;0.10;;;;;;;26.75;42.98;96448.16;7398484;19;20006;-55
2023/10/29 03:59:15;;;;;;;0.20;0.20;;;;;;;28.77;40.69;96442.59;7397994;19;20006;-54
2023/10/29 04:01:41;;;;;;;0.30;0.30;;;;;;;27.19;42.00;96447.94;7395092;19;20010;-54
2023/10/29 04:04:08;;;;;;;0.10;0.10;;;;;;;26.75;43.48;96453.88;7397989;19;20015;-54
2023/10/29 04:06:34;;;;;;;0.10;0.10;;;;;;;29.22;40.53;96441.38;7402167;19;20022;-54
2023/10/29 04:09:01;;;;;;;0.10;0.10;;;;;;;27.34;41.83;96450.53;7397197;19;20015;-54
2023/10/29 04:11:27;;;;;;;0.30;0.20;;;;;;;25.38;45.03;96449.41;7394677;19;20049;-54
2023/10/29 04:13:53;;;;;;;0.13;0.13;;;;;;;26.19;44.38;96452.13;7396888;19;20022;-54
2023/10/29 04:16:20;;;;;;;0.17;0.13;;;;;;;28.51;41.47;96456.31;7401142;19;20024;-54
2023/10/29 04:18:46;;;;;;;0.10;0.10;;;;;;;28.47;40.89;96451.25;7395889;19;20035;-54
2023/10/29 04:21:12;;;;;;;0.10;0.10;;;;;;;29.26;39.97;96458.66;7394696;19;20026;-55
2023/10/29 04:23:39;;;;;;;0.10;0.10;;;;;;;29.04;39.87;96455.34;7395687;19;20011;-55
2023/10/29 04:26:05;;;;;;;0.10;0.10;;;;;;;28.50;40.40;96455.59;7399824;19;20010;-54
2023/10/29 04:28:31;;;;;;;0.10;0.00;;;;;;;29.53;39.16;96452.00;7397483;19;20037;-54
2023/10/29 04:30:58;;;;;;;0.30;0.30;;;;;;;30.41;37.66;96460.69;7397210;19;20034;-54
2023/10/29 04:33:24;;;;;;;0.10;0.10;;;;;;;29.52;38.30;96470.63;7395269;19;20025;-54
2023/10/29 04:35:50;;;;;;;0.10;0.10;;;;;;;27.80;40.84;96479.63;7400472;19;20086;-54
2023/10/29 04:38:16;;;;;;;0.28;0.20;;;;;;;29.43;38.71;96468.31;7397298;19;20018;-54
2023/10/29 04:40:42;;;;;;;0.10;0.10;;;;;;;29.82;37.98;96470.50;7394735;19;20118;-54
2023/10/29 04:43:08;;;;;;;0.10;0.10;;;;;;;32.22;35.60;96471.47;7396734;19;20011;-54
2023/10/29 04:45:34;;;;;;;0.10;0.10;;;;;;;32.00;35.28;96482.81;7399296;19;20082;-54
2023/10/29 04:48:00;;;;;;;0.17;0.17;;;;;;;32.19;34.93;96484.41;7396414;19;20018;-55
2023/10/29 04:50:30;;;;;;;0.10;0.10;;;;;;;29.96;36.82;96488.66;7395958;19;20014;-54
2023/10/29 04:52:57;;;;;;;0.32;0.28;;;;;;;31.99;35.63;96487.09;7396551;19;20553;-55
2023/10/29 04:55:23;;;;;;;0.10;0.10;;;;;;;33.37;33.60;96483.72;7398156;19;20036;-54
2023/10/29 04:57:49;;;;;;;0.10;0.10;;;;;;;28.83;37.93;96496.41;7394827;19;20015;-54
2023/10/29 05:00:16;;;;;;;0.10;0.10;;;;;;;28.12;39.00;96494.78;7395626;19;20071;-54
2023/10/29 05:02:42;;;;;;;0.10;0.10;;;;;;;26.68;40.73;96500.72;7395288;19;20014;-54
2023/10/29 05:05:11;;;;;;;1.98;1.05;;;;;;;26.06;41.23;96496.63;7397626;19;20018;-54
2023/10/29 05:07:37;;;;;;;0.10;0.10;;;;;;;24.77;43.22;96500.63;7398699;19;20014;-54
2023/10/29 05:10:05;;;;;;;0.10;0.10;;;;;;;26.43;41.36;96495.69;7395173;19;20066;-54
2023/10/29 05:12:31;;;;;;;0.52;0.30;;;;;;;25.80;41.99;96497.88;7394814;19;20482;-54
2023/10/29 05:14:57;;;;;;;0.10;0.10;;;;;;;25.49;42.86;96507.53;7397010;19;20024;-54
2023/10/29 05:17:23;;;;;;;0.10;0.10;;;;;;;27.72;39.55;96503.03;7394507;19;20349;-54
2023/10/29 05:19:49;;;;;;;0.10;0.10;;;;;;;31.89;35.50;96496.38;7394318;19;20019;-54
2023/10/29 05:22:15;;;;;;;0.43;0.20;;;;;;;33.97;33.28;96500.50;7395084;19;20356;-54
2023/10/29 05:24:41;;;;;;;0.10;0.10;;;;;;;37.35;29.71;96495.22;7393639;19;20515;-54
2023/10/29 05:27:07;;;;;;;0.20;0.20;;;;;;;31.08;33.98;96506.19;7398818;19;20011;-54
2023/10/29 05:29:34;;;;;;;0.10;0.10;;;;;;;25.88;39.93;96506.72;7393110;19;20014;-54
2023/10/29 05:32:00;;;;;;;0.10;0.10;;;;;;;25.42;41.51;96517.97;7394186;19;20014;-54
2023/10/29 05:34:27;;;;;;;0.20;0.20;;;;;;;25.61;40.81;96510.78;7394493;19;20010;-54
2023/10/29 05:36:53;;;;;;;0.10;0.10;;;;;;;23.97;42.95;96523.69;7393357;19;20011;-54
2023/10/29 05:39:19;;;;;;;0.10;0.10;;;;;;;23.73;43.81;96534.06;7395039;19;20011;-54
2023/10/29 05:41:45;;;;;;;0.30;0.22;;;;;;;23.19;44.86;96534.53;7392443;19;20015;-54
2023/10/29 05:44:11;;;;;;;2.08;0.90;;;;;;;22.67;45.40;96540.63;7392870;19;20018;-54
2023/10/29 05:46:37;;;;;;;0.35;0.35;;;;;;;22.34;45.97;96541.94;7393930;19;20010;-54
2023/10/29 05:49:03;;;;;;;0.10;0.00;;;;;;;22.44;46.16;96544.50;7395764;19;20016;-54
2023/10/29 05:51:29;;;;;;;0.10;0.10;;;;;;;23.51;45.43;96543.75;7394553;19;20078;-54
2023/10/29 05:53:55;;;;;;;0.52;0.52;;;;;;;23.75;44.23;96554.03;7395882;19;20014;-54
2023/10/29 05:56:22;;;;;;;0.10;0.10;;;;;;;25.19;42.55;96546.28;7392749;19;20393;-54
2023/10/29 05:58:48;;;;;;;1.10;0.80;;;;;;;25.63;41.72;96552.88;7394038;19;20074;-54
2023/10/29 06:01:15;;;;;;;0.10;0.10;;;;;;;24.38;42.87;96562.34;7393635;19;20018;-54
2023/10/29 06:03:41;;;;;;;0.75;0.40;;;;;;;25.11;42.45;96558.09;7394188;19;20038;-54
2023/10/29 06:06:07;;;;;;;0.10;0.10;;;;;;;24.59;43.42;96567.44;7394703;19;20359;-55
2023/10/29 06:08:33;;;;;;;0.10;0.10;;;;;;;24.95;43.18;96571.00;7393868;19;20045;-55
2023/10/29 06:10:59;;;;;;;0.30;0.30;;;;;;;26.47;41.19;96570.00;7393313;19;20454;-55
2023/10/29 06:13:25;;;;;;;0.10;0.10;;;;;;;25.02;42.84;96578.38;7394099;19;20481;-54
2023/10/29 06:15:52;;;;;;;0.10;0.10;;;;;;;24.68;43.63;96580.63;7392889;19;20011;-54
2023/10/29 06:18:18;;;;;;;0.10;0.10;;;;;;;24.79;43.55;96576.81;7393412;19;20006;-54
2023/10/29 06:20:44;;;;;;;0.10;0.10;;;;;;;24.07;44.09;96583.84;7390264;19;20474;-54
2023/10/29 06:23:11;;;;;;;0.30;0.20;;;;;;;24.05;44.41;96580.94;7392693;19;20506;-54
2023/10/29 06:25:37;;;;;;;0.10;0.10;;;;;;;24.20;44.21;96578.66;7394241;19;20011;-54
2023/10/29 06:28:03;;;;;;;0.30;0.20;;;;;;;23.91;44.78;96582.41;7393239;19;20018;-55
2023/10/29 06:30:29;;;;;;;0.38;0.38;;;;;;;24.82;43.09;96584.78;7390579;19;20011;-54
2023/10/29 06:33:00;;;;;;;0.10;0.10;;;;;;;24.09;44.04;96589.63;7392652;19;20023;-54
2023/10/29 06:35:26;;;;;;;;;;;;;;;26.28;41.54;96591.53;7393103;19;20011;-54
2023/10/29 06:37:52;;;;;;;0.20;0.20;;;;;;;23.90;44.27;96604.44;7397686;19;20293;-54
2023/10/29 06:40:19;;;;;;;0.10;0.10;;;;;;;23.63;44.55;96610.34;7392314;19;20086;-54
2023/10/29 06:42:45;;;;;;;0.10;0.10;;;;;;;24.35;43.92;96618.41;7392508;19;20011;-54
2023/10/29 06:45:12;;;;;;;0.55;0.20;;;;;;;24.31;43.71;96634.56;7391590;19;20027;-54
2023/10/29 06:47:38;;;;;;;0.10;0.10;;;;;;;25.51;42.42;96630.13;7389981;19;20006;-54
2023/10/29 06:50:04;;;;;;;0.20;0.20;;;;;;;24.62;43.29;96640.16;7402094;19;20015;-54
2023/10/29 06:52:30;;;;;;;0.90;0.20;;;;;;;25.62;42.07;96642.63;7400179;19;20011;-54
2023/10/29 06:54:57;;;;;;;0.10;0.00;;;;;;;25.05;42.90;96651.84;7403275;19;20024;-54
2023/10/29 06:57:23;;;;;;;0.10;0.10;;;;;;;25.58;42.31;96648.19;7399186;19;20022;-54
2023/10/29 06:59:49;;;;;;;0.20;0.20;;;;;;;24.49;43.60;96658.84;7398105;19;20010;-54
2023/10/29 07:02:15;;;;;;;1.65;0.40;;;;;;;24.94;42.59;96654.97;7401694;19;20026;-54
2023/10/29 07:04:41;;;;;;;0.10;0.10;;;;;;;24.78;42.68;96652.19;7399305;19;20054;-54
2023/10/29 07:07:08;;;;;;;0.10;0.10;;;;;;;24.79;42.83;96659.38;7402326;19;20323;-54
2023/10/29 07:09:34;;;;;;;0.15;0.15;;;;;;;24.80;42.53;96655.84;7399481;19;20011;-54
2023/10/29 07:12:00;;;;;;;0.35;0.25;;;;;;;23.89;44.07;96656.97;7400776;19;20331;-54
2023/10/29 07:14:26;;;;;;;0.73;0.17;;;;;;;25.26;42.24;96662.63;7403144;19;20019;-54
2023/10/29 07:16:52;;;;;;;1.10;0.52;;;;;;;26.89;40.16;96662.03;7402611;19;20830;-54
2023/10/29 07:19:18;;;;;;;0.60;0.32;;;;;;;25.72;40.91;96665.78;7403493;19;20019;-54
2023/10/29 07:21:45;;;;;;;0.10;0.10;;;;;;;26.85;40.37;96665.50;7399918;19;20018;-54
2023/10/29 07:24:11;;;;;;;0.20;0.10;;;;;;;27.42;39.16;96670.84;7402721;19;20436;-54
2023/10/29 07:26:37;;;;;;;15.10;0.57;;;;;;;28.12;38.18;96680.78;7401433;19;20010;-54
2023/10/29 07:29:03;;;;;;;0.10;0.10;;;;;;;28.54;37.84;96676.16;7402984;19;20455;-54
2023/10/29 07:31:30;;;;;;;0.17;0.17;;;;;;;30.10;36.55;96679.78;7401753;19;20010;-54
2023/10/29 07:33:56;;;;;;;0.13;0.13;;;;;;;27.74;39.12;96673.97;7401732;19;20032;-54
2023/10/29 07:36:23;;;;;;;0.40;0.40;;;;;;;27.73;38.75;96676.09;7402351;19;20337;-54
2023/10/29 07:38:49;;;;;;;0.10;0.10;;;;;;;27.50;38.61;96678.97;7400532;19;20121;-54
2023/10/29 07:41:19;;;;;;;0.65;0.55;;;;;;;26.52;40.30;96685.78;7399516;19;20387;-54
2023/10/29 07:43:46;;;;;;;0.30;0.30;;;;;;;25.14;42.37;96693.50;7401360;19;20006;-54
2023/10/29 07:46:12;;;;;;;0.20;0.20;;;;;;;26.24;41.37;96693.38;7400157;19;20031;-54
2023/10/29 07:48:38;;;;;;;0.10;0.10;;;;;;;27.42;39.97;96688.00;7400542;19;20017;-54
2023/10/29 07:51:04;;;;;;;0.17;0.17;;;;;;;27.17;40.78;96697.22;7402021;19;20502;-54
2023/10/29 07:53:31;;;;;;;0.10;0.10;;;;;;;26.83;41.30;96711.09;7401221;19;20027;-54
2023/10/29 07:56:26;;;;;;;1.27;0.25;;;;;;;26.95;41.63;96702.94;7401212;19;20011;-54
2023/10/29 07:58:52;;;;;;;0.52;0.52;;;;;;;27.89;40.51;96703.69;7399030;19;20070;-54
2023/10/29 08:01:18;;;;;;;0.10;0.10;;;;;;;27.92;40.52;96697.34;7397276;19;20007;-54
2023/10/29 08:03:45;;;;;;;0.50;0.50;;;;;;;28.45;39.29;96706.00;7400541;19;20015;-54
2023/10/29 08:06:13;;;;;;;0.32;0.32;;;;;;;28.59;39.31;96707.81;7400596;19;20006;-54
2023/10/29 08:08:39;;;;;;;0.50;0.50;;;;;;;27.23;41.20;96705.22;7401870;19;20014;-54
2023/10/29 08:11:06;;;;;;;0.10;0.10;;;;;;;28.58;40.11;96706.34;7400923;19;20062;-54
2023/10/29 08:13:32;;;;;;;0.10;0.10;;;;;;;31.16;36.82;96713.34;7400822;19;20033;-54
2023/10/29 08:15:59;;;;;;;0.10;0.10;;;;;;;30.76;38.00;96718.38;7401304;19;20440;-54
2023/10/29 08:18:25;;;;;;;2.50;0.90;;;;;;;34.00;34.26;96716.38;7401933;19;20471;-54
2023/10/29 08:20:51;;;;;;;0.55;0.50;;;;;;;35.10;32.75;96709.50;7394818;19;20079;-54
2023/10/29 08:23:17;;;;;;;0.10;0.10;;;;;;;28.80;38.74;96729.84;7396531;19;20018;-54
2023/10/29 08:25:43;;;;;;;2.55;0.73;;;;;;;28.00;40.06;96743.41;7399516;19;20014;-54
2023/10/29 08:28:09;;;;;;;1.15;1.05;;;;;;;27.25;40.94;96736.72;7396749;19;20018;-54
2023/10/29 08:30:36;;;;;;;1.05;0.95;;;;;;;27.05;41.57;96737.53;7396499;19;20010;-54
2023/10/29 08:33:02;;;;;;;4.22;1.23;;;;;;;27.07;42.38;96739.75;7397094;19;20024;-54
2023/10/29 08:35:28;;;;;;;1.98;0.60;;;;;;;27.50;42.29;96736.88;7398513;19;20117;-54
2023/10/29 08:37:55;;;;;;;0.10;0.10;;;;;;;27.33;42.53;96737.00;7399845;19;20040;-54
2023/10/29 08:40:21;;;;;;;0.43;0.30;;;;;;;27.23;42.71;96733.81;7395578;19;20010;-54
2023/10/29 08:42:47;;;;;;;0.75;0.22;;;;;;;28.13;42.19;96735.88;7396378;19;20017;-54
2023/10/29 08:45:14;;;;;;;0.10;0.10;;;;;;;27.50;42.09;96734.00;7398053;19;20010;-54
2023/10/29 08:47:40;;;;;;;8.25;1.75;;;;;;;28.28;41.04;96738.47;7395426;19;20074;-54
2023/10/29 08:50:08;;;;;;;0.75;0.40;;;;;;;27.70;41.61;96751.75;7395015;19;20017;-54
2023/10/29 08:52:34;;;;;;;1.13;0.30;;;;;;;28.50;41.38;96758.38;7394646;19;20017;-54
2023/10/29 08:55:00;;;;;;;0.20;0.20;;;;;;;28.35;41.56;96757.25;7400345;19;20011;-54
2023/10/29 08:57:26;;;;;;;0.10;0.00;;;;;;;27.47;42.18;96746.03;7395289;19;20014;-54
2023/10/29 08:59:52;;;;;;;0.30;0.30;;;;;;;27.80;41.70;96737.03;7394810;19;20015;-54
2023/10/29 09:02:18;;;;;;;0.57;0.57;;;;;;;28.57;40.90;96747.84;7394110;19;20859;-54
2023/10/29 09:04:45;;;;;;;1.88;0.90;;;;;;;28.74;40.81;96744.72;7394942;19;20371;-54
2023/10/29 09:07:11;;;;;;;1.10;0.30;;;;;;;29.04;39.75;96756.25;7397884;19;20015;-54
2023/10/29 09:09:37;;;;;;;0.22;0.22;;;;;;;28.92;40.49;96755.91;7392672;19;20019;-54
2023/10/29 09:12:04;;;;;;;0.10;0.10;;;;;;;28.44;40.69;96756.06;7393682;19;20006;-55
2023/10/29 09:14:30;;;;;;;0.35;0.32;;;;;;;28.24;41.31;96751.94;7393936;19;20475;-54
2023/10/29 09:16:56;;;;;;;3.28;1.27;;;;;;;28.47;40.94;96760.47;7394645;19;20031;-54
2023/10/29 09:19:22;;;;;;;0.10;0.10;;;;;;;28.09;41.48;96750.78;7394224;19;20013;-55
2023/10/29 09:21:48;;;;;;;0.10;0.10;;;;;;;28.14;41.67;96752.38;7392833;19;20015;-55
2023/10/29 09:24:17;;;;;;;0.25;0.20;;;;;;;28.02;41.51;96757.75;7394724;19;20023;-55
2023/10/29 09:26:43;;;;;;;0.50;0.50;;;;;;;27.94;42.10;96756.75;7394322;19;20015;-55
2023/10/29 09:29:09;;;;;;;7.75;0.80;;;;;;;28.54;41.55;96747.75;7394577;19;20091;-55
2023/10/29 09:31:36;;;;;;;0.10;0.00;;;;;;;27.08;42.94;96758.34;7392599;19;20006;-55
2023/10/29 09:34:03;;;;;;;0.10;0.00;;;;;;;26.60;43.96;96765.25;7394262;19;20031;-55
2023/10/29 09:36:30;;;;;;;0.10;0.10;;;;;;;26.81;44.00;96765.31;7399376;19;20017;-55
2023/10/29 09:38:56;;;;;;;1.85;0.43;;;;;;;26.88;43.89;96764.13;7393835;19;20340;-55
2023/10/29 09:41:22;;;;;;;0.30;0.20;;;;;;;27.19;44.05;96767.97;7392290;19;20014;-55
2023/10/29 09:43:52;;;;;;;0.13;0.13;;;;;;;27.43;43.37;96763.06;7393058;19;20066;-55
2023/10/29 09:46:19;;;;;;;0.20;0.20;;;;;;;30.26;40.11;96772.69;7395717;19;20073;-55
2023/10/29 09:48:47;;;;;;;0.20;0.20;;;;;;;31.27;38.33;96774.63;7393602;19;20463;-55
2023/10/29 09:51:14;;;;;;;0.10;0.00;;;;;;;30.05;39.56;96776.56;7394103;19;20032;-54
2023/10/29 09:53:40;;;;;;;0.03;0.03;;;;;;;31.06;38.70;96770.66;7396005;19;20051;-55
2023/10/29 09:56:08;;;;;;;0.57;0.35;;;;;;;32.30;36.78;96761.75;7395729;19;20014;-54
2023/10/29 09:58:35;;;;;;;0.73;0.40;;;;;;;34.75;34.71;96762.94;7393444;19;20025;-55
2023/10/29 10:01:04;;;;;;;0.10;0.08;;;;;;;34.07;34.38;96772.78;7392083;19;20010;-55
2023/10/29 10:03:30;;;;;;;0.10;0.00;;;;;;;32.76;35.41;96768.78;7392390;19;20014;-54
2023/10/29 10:05:57;;;;;;;0.20;0.20;;;;;;;42.18;28.26;96745.09;7397387;19;20019;-54
2023/10/29 10:08:28;;;;;;;0.52;0.28;;;;;;;45.79;23.65;96739.75;7393049;19;20010;-54
2023/10/29 10:10:55;;;;;;;;;;;;;;;46.45;22.69;96741.28;7393014;19;20006;-54
2023/10/29 10:13:41;;;;;;;0.30;0.30;;;;;;;46.26;22.18;96749.50;7392529;19;20317;-54
2023/10/29 10:16:14;;;;;;;1.17;0.50;;;;;;;27.73;36.12;96779.03;7395161;19;20412;-55
2023/10/29 10:18:54;;;;;;;2.85;0.35;;;;;;;15.82;100.00;96811.16;7391105;19;20034;-55
2023/10/29 10:21:23;;;;;;;0.10;0.00;;;;;;;30.17;64.95;96784.72;7390923;19;20366;-55
2023/10/29 10:23:55;;;;;;;0.15;0.05;;;;;;;43.83;26.56;96745.84;7389448;19;20253;-55
2023/10/29 10:26:34;;;;;;;0.10;0.10;;;;;;;43.28;24.34;96743.28;7396612;19;20034;-56
2023/10/29 10:29:04;;;;;;;0.10;0.00;;;;;;;47.22;22.33;96733.22;7392692;19;20074;-55
2023/10/29 10:31:33;;;;;;;0.20;0.20;;;;;;;24.91;49.04;96778.66;7392721;19;20027;-54
2023/10/29 10:34:18;;;;;;;0.10;0.00;;;;;;;20.95;74.72;96794.41;7392557;19;20085;-54
2023/10/29 10:36:45;;;;;;;0.00;0.00;;;;;;;28.66;65.21;96781.75;7393826;19;20015;-54
2023/10/29 10:39:11;;;;;;;0.10;0.00;;;;;;;24.72;84.25;96785.69;7391768;19;20010;-54
2023/10/29 10:41:42;;;;;;;0.38;0.30;;;;;;;44.34;26.43;96753.56;7390893;19;20014;-54
2023/10/29 10:44:10;;;;;;;0.88;0.80;;;;;;;46.62;22.86;96747.84;7391745;19;20013;-54
2023/10/29 10:46:40;;;;;;;0.10;0.05;;;;;;;46.99;22.30;96759.38;7391099;19;20018;-54
2023/10/29 10:49:09;;;;;;;0.10;0.10;;;;;;;46.80;21.92;96752.94;7392409;19;20042;-54
2023/10/29 10:51:37;;;;;;;0.10;0.10;;;;;;;47.12;21.06;96738.91;7391520;19;20031;-54
2023/10/29 10:54:05;;;;;;;0.10;0.10;;;;;;;46.98;20.64;96752.06;7394576;19;20014;-54
2023/10/29 10:56:36;;;;;;;0.20;0.20;;;;;;;47.14;20.34;96738.78;7396024;19;20010;-55
2023/10/29 10:59:09;;;;;;;0.28;0.22;;;;;;;46.79;20.63;96741.94;7391391;19;20475;-55
2023/10/29 11:01:37;;;;;;;0.10;0.00;;;;;;;19.57;76.00;96790.34;7389481;19;20108;-55
2023/10/29 11:04:05;;;;;;;0.13;0.05;;;;;;;16.75;100.00;96804.88;7391940;19;20392;-55
2023/10/29 11:06:32;;;;;;;0.20;0.20;;;;;;;17.32;100.00;96790.00;7394173;19;20022;-54
2023/10/29 11:08:59;;;;;;;0.10;0.00;;;;;;;15.22;100.00;96809.22;7391771;19;20035;-55
2023/10/29 11:11:41;;;;;;;0.10;0.10;;;;;;;12.48;100.00;96816.72;7392093;19;20018;-54
2023/10/29 11:14:17;;;;;;;0.32;0.20;;;;;;;11.54;100.00;96817.88;7391235;19;20031;-55
2023/10/29 11:16:47;;;;;;;0.10;0.00;;;;;;;11.40;100.00;96820.06;7391289;19;20413;-55
2023/10/29 11:19:45;;;;;;;0.10;0.00;;;;;;;11.37;100.00;96815.59;7390967;19;20066;-55
2023/10/29 11:22:29;;;;;;;0.43;0.28;;;;;;;11.22;100.00;96818.34;7391705;19;20468;-55
2023/10/29 11:25:04;;;;;;;2.22;0.43;;;;;;;10.94;100.00;96812.13;7393461;19;20038;-54
2023/10/29 11:27:44;;;;;;;0.10;0.00;;;;;;;11.02;100.00;96822.00;7392093;19;20018;-55
2023/10/29 11:30:13;;;;;;;0.10;0.03;;;;;;;10.91;100.00;96829.97;7395787;19;20474;-55
2023/10/29 11:32:41;;;;;;;0.43;0.30;;;;;;;10.79;100.00;96823.97;7391493;19;20367;-55
2023/10/29 11:35:21;;;;;;;0.10;0.00;;;;;;;10.95;100.00;96824.78;7395578;19;20086;-55